• Join FlightAware (Why Join?)
  • Login
  • US Flag 
12:24AM EST


 

Airport Tracker/Info


-or-


 

Live Flight TrackerFlight Track Log ✈ N75ZM ✈ 11-Jun-2014 ✈ KCRG - KPDK

Flight Track Log - Related Links

Times and Time Zones

All times are in EDT time to prevent confusion due to time zone crossing. See the N75ZM flight status page for this flight to view local times or setup timezone preferences in your user account.

Time Position Orientation Groundspeed Altitude Reporting Facility
EDT Latitude Longitude Course Direction KTS MPH feet Rate Location/Type
07:04AM 30.3469 -81.5253 337° Northwest 95 109 400  Level Jacksonville Center
07:05AM 30.3847 -81.5442 337° Northwest 133 153 1,500 900 Climbing Jacksonville Center
07:06AM 30.4222 -81.5436 North 141 162 2,500 960 Climbing Jacksonville Center
07:07AM 30.4575 -81.5311 17° North 135 155 3,500 780 Climbing Jacksonville Center
07:08AM 30.4892 -81.5425 343° North 140 161 4,000 600 Climbing Jacksonville Center
07:09AM 30.5247 -81.5661 330° Northwest 142 163 4,700 660 Climbing Jacksonville Center
07:10AM 30.5583 -81.5875 331° Northwest 139 160 5,400 720 Climbing Jacksonville Center
07:11AM 30.5961 -81.6064 337° Northwest 137 158 6,200 720 Climbing Jacksonville Center
07:12AM 30.6297 -81.6275 332° Northwest 136 157 6,900 300 Climbing Jacksonville Center
07:13AM 30.6697 -81.6511 333° Northwest 172 198 6,900  Level Jacksonville Center
07:14AM 30.7181 -81.6819 331° Northwest 178 205 6,900  Level Jacksonville Center
07:15AM 30.7600 -81.7081 332° Northwest 177 204 6,900  Level Jacksonville Center
07:17AM 30.8397 -81.7553 333° Northwest 196 226 6,900  Level Jacksonville Center
07:18AM 30.8819 -81.7839 330° Northwest 189 217 6,900  Level Jacksonville Center
07:19AM 30.9258 -81.8100 333° Northwest 177 204 6,900  Level Jacksonville Center
07:20AM 30.9678 -81.8361 332° Northwest 172 198 6,900  Level Jacksonville Center
07:21AM 31.0139 -81.8625 334° Northwest 172 198 6,900  Level Jacksonville Center
07:22AM 31.0581 -81.8886 333° Northwest 172 198 6,900  Level Jacksonville Center
07:23AM 31.1064 -81.9172 333° Northwest 180 207 6,900  Level Jacksonville Center
07:24AM 31.1503 -81.9433 333° Northwest 180 207 6,900  Level Jacksonville Center
07:25AM 31.1922 -81.9697 332° Northwest 180 207 6,900  Level Jacksonville Center
07:26AM 31.2322 -81.9936 333° Northwest 180 207 6,900  Level Jacksonville Center
07:27AM 31.2742 -82.0247 328° Northwest 180 207 6,900  Level Jacksonville Center
07:28AM 31.3181 -82.0511 333° Northwest 180 207 6,900  Level Jacksonville Center
07:29AM 31.3683 -82.0800 334° Northwest 180 207 6,900  Level Jacksonville Center
07:30AM 31.4083 -82.1039 333° Northwest 174 200 6,900  Level Jacksonville Center
07:31AM 31.4461 -82.1281 331° Northwest 174 200 6,900  Level Jacksonville Center
07:32AM 31.4964 -82.1592 332° Northwest 179 206 6,900  Level Jacksonville Center
07:33AM 31.5381 -82.1833 334° Northwest 179 206 6,900  Level Jacksonville Center
07:34AM 31.5822 -82.2147 329° Northwest 179 206 6,900  Level Jacksonville Center
07:35AM 31.6219 -82.2386 333° Northwest 179 206 6,900  Level Jacksonville Center
07:36AM 31.6658 -82.2628 335° Northwest 179 206 6,900  Level Jacksonville Center
07:37AM 31.7142 -82.2942 331° Northwest 179 206 7,000 300 Climbing Jacksonville Center
07:38AM 31.7539 -82.3183 333° Northwest 174 200 7,500 420 Climbing Jacksonville Center
07:39AM 31.7936 -82.3475 328° Northwest 169 194 7,900 180 Climbing Jacksonville Center
07:40AM 31.8336 -82.3717 333° Northwest 164 189 7,900  Level Jacksonville Center
07:41AM 31.8753 -82.3983 331° Northwest 164 189 7,900  Level Jacksonville Center
07:42AM 31.9214 -82.4250 334° Northwest 170 196 7,900  Level Jacksonville Center
07:43AM 31.9653 -82.4542 331° Northwest 170 196 7,900  Level Jacksonville Center
07:44AM 32.0114 -82.4808 334° Northwest 175 201 7,900  Level Jacksonville Center
07:45AM 32.0575 -82.5103 332° Northwest 181 208 7,900  Level Jacksonville Center
07:46AM 32.1014 -82.5394 331° Northwest 181 208 7,900  Level Jacksonville Center
07:47AM 32.1453 -82.5686 331° Northwest 186 214 7,900  Level Jacksonville Center
07:48AM 32.1933 -82.5956 335° Northwest 186 214 7,900  Level Jacksonville Center
07:49AM 32.2372 -82.6247 331° Northwest 179 206 7,900  Level Jacksonville Center
07:50AM 32.2853 -82.6567 331° Northwest 185 213 7,900  Level Jacksonville Center
07:51AM 32.3314 -82.6836 334° Northwest 185 213 7,900  Level Jacksonville Center
07:52AM 32.4000 -82.7333 329° Northwest 189 217 7,900  Level Atlanta TRACON
07:53AM 32.4500 -82.7667 331° Northwest 190 219 7,900  Level Atlanta TRACON
07:54AM 32.5000 -82.7833 344° North 184 212 7,900  Level Atlanta TRACON
07:55AM 32.5500 -82.8167 331° Northwest 187 215 7,900  Level Atlanta TRACON
07:56AM 32.5833 -82.8500 320° Northwest 182 209 7,900 -60 Level Atlanta TRACON
07:58AM 32.6333 -82.9000 320° Northwest 188 216 7,800 -300 Descending Atlanta TRACON
07:58AM 32.6667 -82.9333 320° Northwest 192 221 7,400 -420 Descending Atlanta TRACON
07:59AM 32.7000 -82.9667 320° Northwest 193 222 7,100 -300 Descending Atlanta TRACON
08:00AM 32.7500 -83.0167 320° Northwest 193 222 6,800 -360 Descending Atlanta TRACON
08:01AM 32.7833 -83.0500 320° Northwest 192 221 6,500 -360 Descending Atlanta TRACON
08:02AM 32.8167 -83.0833 320° Northwest 194 223 6,200 -300 Descending Atlanta TRACON
08:03AM 32.8667 -83.1333 320° Northwest 194 223 5,900 -180 Descending Atlanta TRACON
08:04AM 32.9000 -83.1667 320° Northwest 185 213 5,900  Level Atlanta TRACON
08:05AM 32.9333 -83.2000 320° Northwest 180 207 5,900  Level Atlanta TRACON
08:06AM 32.9833 -83.2500 320° Northwest 181 208 5,900  Level Atlanta TRACON
08:07AM 33.0167 -83.2833 320° Northwest 177 204 5,900  Level Atlanta TRACON
08:08AM 33.0500 -83.3167 320° Northwest 175 201 5,900  Level Atlanta TRACON
08:09AM 33.0833 -83.3667 309° West 173 199 5,900  Level Atlanta TRACON
08:10AM 33.1333 -83.4000 331° Northwest 175 201 5,900  Level Atlanta TRACON
08:11AM 33.1667 -83.4333 320° Northwest 175 201 5,900  Level Atlanta TRACON
08:12AM 33.2000 -83.4667 320° Northwest 171 197 5,900  Level Atlanta TRACON
08:13AM 33.2333 -83.5167 309° West 176 203 5,900  Level Atlanta TRACON
08:14AM 33.2667 -83.5500 320° Northwest 174 200 5,900  Level Atlanta TRACON
08:15AM 33.3000 -83.5833 320° Northwest 174 200 5,900  Level Atlanta TRACON
08:16AM 33.3500 -83.6167 331° Northwest 174 200 5,900  Level Atlanta TRACON
08:17AM 33.3833 -83.6500 320° Northwest 173 199 5,900  Level Atlanta TRACON
08:18AM 33.4167 -83.6833 320° Northwest 173 199 5,900  Level Atlanta TRACON
08:19AM 33.4667 -83.7167 331° Northwest 175 201 5,900  Level Atlanta TRACON
08:20AM 33.5167 -83.7500 331° Northwest 182 209 5,900  Level Atlanta TRACON
08:21AM 33.5500 -83.7833 320° Northwest 182 209 5,900  Level Atlanta TRACON
08:22AM 33.6000 -83.8000 344° North 180 207 5,900  Level Atlanta TRACON
08:23AM 33.6500 -83.8333 331° Northwest 181 208 5,900 -240 Level Atlanta TRACON
08:24AM 33.7000 -83.8500 345° North 187 215 5,500 -660 Descending Atlanta TRACON
08:25AM 33.7500 -83.8667 345° North 193 222 4,600 -840 Descending Atlanta TRACON
08:26AM 33.8000 -83.8667 360° North 185 213 3,900 -420 Descending Atlanta TRACON
08:27AM 33.8333 -83.9000 320° Northwest 157 181 3,900  Level Atlanta TRACON
08:28AM 33.8667 -83.9333 320° Northwest 140 161 3,900  Level Atlanta TRACON
08:29AM 33.8833 -83.9667 301° West 136 157 3,900  Level Atlanta TRACON
08:30AM 33.9167 -84.0000 320° Northwest 136 157 3,900  Level Atlanta TRACON
08:31AM 33.9333 -84.0333 301° West 133 153 3,900 -120 Level Atlanta TRACON
08:32AM 33.9667 -84.0667 320° Northwest 139 160 3,700 -360 Descending Atlanta TRACON
08:33AM 33.9833 -84.1000 301° West 153 176 3,200 -420 Descending Atlanta TRACON
08:34AM 34.0167 -84.1500 309° West 153 176 2,900 -180 Descending Atlanta TRACON
08:36AM 34.0333 -84.1833 301° West 134 154 2,900  Level Atlanta TRACON
08:37AM 34.0500 -84.2167 301° West 114 131 2,900  Level Atlanta TRACON
08:37AM 34.0167 -84.2333 203° Southwest 101 116 2,900  Level Atlanta TRACON
08:39AM 34.0000 -84.2500 220° Southwest 89 102 2,900 -60 Level Atlanta TRACON
08:40AM 33.9833 -84.2500 180° South 88 101 2,800 -300 Descending Atlanta TRACON
08:41AM 33.9500 -84.2667 203° Southwest 103 119 2,300 -540 Descending Atlanta TRACON
08:42AM 33.9333 -84.2833 220° Southwest 81 93 1,800 -480 Descending Atlanta TRACON
08:43AM 33.9000 -84.2833 180° South 89 102 1,400 -420 Descending Atlanta TRACON
08:45AM 33.8667 -84.3000 200° South  Level FlightAware Approximate
08:52AM 33.8756 -84.3020 350° North  Level Estimated